Time;durP1;ratioP1;P1;durP2;ratioP2;P2;SDS_P1;SDS_P2;PMS_P1;PMS_P2;Temp;Humidity;BMP_temperature;BMP_pressure;BME280_temperature;BME280_humidity;BME280_pressure;Samples;Min_cycle;Max_cycle;Signal;HPM_P1;HPM_P2
2023/09/21 00:00:49;;;;;;;1999.90;999.90;;;;;;;;;;5064533;28;20048;-85
2023/09/21 00:03:16;;;;;;;1999.90;999.90;;;;;;;;;;5064361;28;20052;-85
2023/09/21 00:05:47;;;;;;;1999.90;999.90;;;;;;;;;;5063022;28;20048;-85
2023/09/21 00:08:13;;;;;;;1999.90;999.90;;;;;;;;;;5061318;28;20049;-84
2023/09/21 00:10:41;;;;;;;1999.90;999.90;;;;;;;;;;5068691;28;20052;-85
2023/09/21 00:13:07;;;;;;;1999.90;999.90;;;;;;;;;;5062041;28;20060;-85
2023/09/21 00:15:34;;;;;;;1999.90;999.90;;;;;;;;;;5062638;28;20044;-85
2023/09/21 00:18:04;;;;;;;1999.90;999.90;;;;;;;;;;5060893;28;20549;-85
2023/09/21 00:20:36;;;;;;;1999.90;999.90;;;;;;;;;;5060715;28;20489;-85
2023/09/21 00:23:06;;;;;;;1999.90;999.90;;;;;;;;;;5056811;28;20518;-85
2023/09/21 00:25:33;;;;;;;1999.90;999.90;;;;;;;;;;5059359;28;20049;-85
2023/09/21 00:27:59;;;;;;;1999.90;999.90;;;;;;;;;;5065710;28;20045;-85
2023/09/21 00:30:26;;;;;;;1999.90;999.90;;;;;;;;;;5058030;28;20055;-86
2023/09/21 00:32:53;;;;;;;1999.90;999.90;;;;;;;;;;5055152;28;20059;-85
2023/09/21 00:35:20;;;;;;;1999.90;999.90;;;;;;;;;;5059696;28;20048;-86
2023/09/21 00:37:46;;;;;;;1999.90;999.90;;;;;;;;;;5041898;28;20052;-88
2023/09/21 00:40:22;;;;;;;1999.90;999.90;;;;;;;;;;5060317;28;20049;-86
2023/09/21 00:42:49;;;;;;;1999.90;999.90;;;;;;;;;;5060046;28;20048;-86
2023/09/21 00:45:18;;;;;;;1999.90;999.90;;;;;;;;;;5057050;28;20045;-88
2023/09/21 00:47:47;;;;;;;1999.90;999.90;;;;;;;;;;5062819;28;20041;-85
2023/09/21 00:50:14;;;;;;;1999.90;999.90;;;;;;;;;;5062192;28;20049;-86
2023/09/21 00:52:41;;;;;;;1999.90;999.90;;;;;;;;;;5063953;28;20055;-86
2023/09/21 00:55:09;;;;;;;1999.90;999.90;;;;;;;;;;5063248;28;20554;-85
2023/09/21 00:57:37;;;;;;;1999.90;999.90;;;;;;;;;;5064759;28;20048;-86
2023/09/21 01:00:10;;;;;;;1999.90;999.90;;;;;;;;;;5067824;28;20044;-86
2023/09/21 01:08:29;;;;;;;1999.90;999.90;;;;;;;;;;5474187;22;20056;-80
2023/09/21 01:10:56;;;;;;;1999.90;999.90;;;;;;;;;;5023958;28;20049;-80
2023/09/21 01:13:25;;;;;;;1999.90;999.90;;;;;;;;;;5043374;28;20053;-80
2023/09/21 01:16:00;;;;;;;1999.90;999.90;;;;;;;;;;5041752;28;20425;-85
2023/09/21 01:18:27;;;;;;;1999.90;999.90;;;;;;;;;;5045379;28;20056;-80
2023/09/21 01:20:55;;;;;;;1999.90;999.90;;;;;;;;;;5052950;28;20042;-79
2023/09/21 01:23:33;;;;;;;1999.90;999.90;;;;;;;;;;5047131;28;20071;-79
2023/09/21 01:26:00;;;;;;;1999.90;999.90;;;;;;;;;;5045774;28;20041;-79
2023/09/21 01:28:29;;;;;;;1999.90;999.90;;;;;;;;;;5044513;28;20413;-82
2023/09/21 01:30:56;;;;;;;1999.90;999.90;;;;;;;;;;5045234;28;20049;-79
2023/09/21 01:33:23;;;;;;;1999.90;999.90;;;;;;;;;;5045153;28;20048;-80
2023/09/21 01:35:50;;;;;;;1999.90;999.90;;;;;;;;;;5047938;28;20049;-80
2023/09/21 01:38:17;;;;;;;1999.90;999.90;;;;;;;;;;5037060;28;20409;-79
2023/09/21 01:40:46;;;;;;;1999.90;999.90;;;;;;;;;;5050567;28;20412;-80
2023/09/21 01:43:15;;;;;;;1999.90;999.90;;;;;;;;;;5041173;28;20073;-80
2023/09/21 01:45:42;;;;;;;1999.90;999.90;;;;;;;;;;5038364;28;20081;-80
2023/09/21 01:48:09;;;;;;;1999.90;999.90;;;;;;;;;;5048734;28;20045;-80
2023/09/21 01:50:42;;;;;;;1999.90;999.90;;;;;;;;;;5050659;28;20053;-80
2023/09/21 01:53:11;;;;;;;1999.90;999.90;;;;;;;;;;5047808;28;20048;-79
2023/09/21 01:55:38;;;;;;;1999.90;999.90;;;;;;;;;;5041859;28;20092;-81
2023/09/21 01:58:06;;;;;;;1999.90;999.90;;;;;;;;;;5042270;28;20064;-79
2023/09/21 02:00:35;;;;;;;1999.90;999.90;;;;;;;;;;5048989;28;20939;-79
2023/09/21 02:03:03;;;;;;;1999.90;999.90;;;;;;;;;;5045067;28;20049;-80
2023/09/21 02:05:29;;;;;;;1999.90;999.90;;;;;;;;;;5048088;28;20051;-80
2023/09/21 02:07:56;;;;;;;1999.90;999.90;;;;;;;;;;5051212;28;20061;-80
2023/09/21 02:10:23;;;;;;;1999.90;999.90;;;;;;;;;;5044000;28;20060;-81
2023/09/21 02:12:56;;;;;;;1999.90;999.90;;;;;;;;;;5047957;28;20420;-80
2023/09/21 02:15:28;;;;;;;1999.90;999.90;;;;;;;;;;5042645;28;20049;-81
2023/09/21 02:17:56;;;;;;;1999.90;999.90;;;;;;;;;;5044244;28;20045;-81
2023/09/21 02:20:22;;;;;;;1999.90;999.90;;;;;;;;;;5040895;28;20077;-79
2023/09/21 02:22:50;;;;;;;1999.90;999.90;;;;;;;;;;5041333;28;20046;-81
2023/09/21 02:25:17;;;;;;;1999.90;999.90;;;;;;;;;;5041747;28;20045;-81
2023/09/21 02:27:45;;;;;;;1999.90;999.90;;;;;;;;;;5041991;28;20042;-80
2023/09/21 02:30:13;;;;;;;1999.90;999.90;;;;;;;;;;5042099;28;20053;-79
2023/09/21 02:32:42;;;;;;;1999.90;999.90;;;;;;;;;;5037582;28;20045;-79
2023/09/21 02:35:13;;;;;;;1999.90;999.90;;;;;;;;;;5043553;28;20057;-79
2023/09/21 02:37:42;;;;;;;1999.90;999.90;;;;;;;;;;5036621;28;20452;-79
2023/09/21 02:40:12;;;;;;;1999.90;999.90;;;;;;;;;;5041258;28;20368;-82
2023/09/21 02:42:39;;;;;;;1999.90;999.90;;;;;;;;;;5041548;28;20076;-79
2023/09/21 02:45:09;;;;;;;1999.90;999.90;;;;;;;;;;5040568;28;20053;-80
2023/09/21 02:47:37;;;;;;;1999.90;999.90;;;;;;;;;;5039877;28;20048;-80
2023/09/21 02:50:14;;;;;;;1999.90;999.90;;;;;;;;;;5038173;28;20074;-80
2023/09/21 02:52:45;;;;;;;1999.90;999.90;;;;;;;;;;5038967;28;20044;-80
2023/09/21 02:55:11;;;;;;;1999.90;999.90;;;;;;;;;;5042354;28;20053;-80
2023/09/21 02:57:39;;;;;;;1999.90;999.90;;;;;;;;;;5041452;28;20053;-81
2023/09/21 03:00:13;;;;;;;1999.90;999.90;;;;;;;;;;5039799;28;20057;-80
2023/09/21 03:02:39;;;;;;;1999.90;999.90;;;;;;;;;;5039962;28;20103;-79
2023/09/21 03:05:10;;;;;;;1999.90;999.90;;;;;;;;;;5043688;28;20053;-81
2023/09/21 03:07:38;;;;;;;1999.90;999.90;;;;;;;;;;5041460;28;20419;-81
2023/09/21 03:10:09;;;;;;;1999.90;999.90;;;;;;;;;;5042603;28;20041;-79
2023/09/21 03:12:36;;;;;;;1999.90;999.90;;;;;;;;;;5040292;28;20049;-83
2023/09/21 03:15:22;;;;;;;1999.90;999.90;;;;;;;;;;5044324;28;20074;-80
2023/09/21 03:17:52;;;;;;;1999.90;999.90;;;;;;;;;;5038624;28;20107;-79
2023/09/21 03:20:28;;;;;;;1999.90;999.90;;;;;;;;;;5042919;28;20371;-80
2023/09/21 03:22:55;;;;;;;1999.90;999.90;;;;;;;;;;5041864;28;20179;-80
2023/09/21 03:25:28;;;;;;;1999.90;999.90;;;;;;;;;;5039475;28;20409;-80
2023/09/21 03:27:55;;;;;;;1999.90;999.90;;;;;;;;;;5034686;28;20056;-81
2023/09/21 03:30:23;;;;;;;1999.90;999.90;;;;;;;;;;5043605;28;20045;-80
2023/09/21 03:32:50;;;;;;;1999.90;999.90;;;;;;;;;;5044010;28;20049;-79
2023/09/21 03:35:16;;;;;;;1999.90;999.90;;;;;;;;;;5041312;28;20053;-80
2023/09/21 03:37:45;;;;;;;1999.90;999.90;;;;;;;;;;5046294;28;20045;-80
2023/09/21 03:40:13;;;;;;;1999.90;999.90;;;;;;;;;;5037119;28;20050;-82
2023/09/21 03:42:41;;;;;;;1999.90;999.90;;;;;;;;;;5047928;28;20103;-80
2023/09/21 03:45:09;;;;;;;1999.90;999.90;;;;;;;;;;5042950;28;20052;-84
2023/09/21 03:47:35;;;;;;;1999.90;999.90;;;;;;;;;;5041301;28;20041;-79
2023/09/21 03:50:03;;;;;;;1999.90;999.90;;;;;;;;;;5037808;28;20049;-80
2023/09/21 03:52:30;;;;;;;1999.90;999.90;;;;;;;;;;5045053;28;20122;-79
2023/09/21 03:55:00;;;;;;;1999.90;999.90;;;;;;;;;;5042192;28;20076;-79
2023/09/21 03:57:27;;;;;;;1999.90;999.90;;;;;;;;;;5043948;28;20080;-81
2023/09/21 03:59:55;;;;;;;1999.90;999.90;;;;;;;;;;5043033;28;20048;-80
2023/09/21 04:02:22;;;;;;;1999.90;999.90;;;;;;;;;;5038823;28;20047;-80
2023/09/21 04:04:50;;;;;;;1999.90;999.90;;;;;;;;;;5046735;28;20045;-80
2023/09/21 04:07:17;;;;;;;1999.90;999.90;;;;;;;;;;5038888;28;20056;-80
2023/09/21 04:09:44;;;;;;;1999.90;999.90;;;;;;;;;;5047555;28;20516;-79
2023/09/21 04:12:12;;;;;;;1999.90;999.90;;;;;;;;;;5050178;28;20080;-81
2023/09/21 04:14:38;;;;;;;1999.90;999.90;;;;;;;;;;5052998;28;20055;-80
2023/09/21 04:17:09;;;;;;;1999.90;999.90;;;;;;;;;;5036015;28;20041;-79
2023/09/21 04:19:37;;;;;;;1999.90;999.90;;;;;;;;;;5047451;28;20401;-80
2023/09/21 04:22:03;;;;;;;1999.90;999.90;;;;;;;;;;5043865;28;20049;-79
2023/09/21 04:24:33;;;;;;;1999.90;999.90;;;;;;;;;;5053140;28;20136;-79
2023/09/21 04:27:00;;;;;;;1999.90;999.90;;;;;;;;;;5045609;28;20051;-79
2023/09/21 04:29:28;;;;;;;1999.90;999.90;;;;;;;;;;5039362;28;20051;-79
2023/09/21 04:31:54;;;;;;;1999.90;999.90;;;;;;;;;;5043832;28;20048;-79
2023/09/21 04:34:21;;;;;;;1999.90;999.90;;;;;;;;;;5047910;28;20489;-80
2023/09/21 04:36:49;;;;;;;1999.90;999.90;;;;;;;;;;5057194;28;20055;-79
2023/09/21 04:39:16;;;;;;;1999.90;999.90;;;;;;;;;;5057171;28;20049;-79
2023/09/21 04:41:42;;;;;;;1999.90;999.90;;;;;;;;;;5048244;28;20497;-80
2023/09/21 04:44:09;;;;;;;1999.90;999.90;;;;;;;;;;5044737;28;20053;-79
2023/09/21 04:46:37;;;;;;;1999.90;999.90;;;;;;;;;;5043534;28;20049;-80
2023/09/21 04:49:04;;;;;;;1999.90;999.90;;;;;;;;;;5042135;28;20048;-79
2023/09/21 04:51:31;;;;;;;1999.90;999.90;;;;;;;;;;5045398;28;20569;-80
2023/09/21 04:53:57;;;;;;;1999.90;999.90;;;;;;;;;;5043567;28;20405;-83
2023/09/21 04:56:24;;;;;;;1999.90;999.90;;;;;;;;;;5043058;28;20049;-82
2023/09/21 04:58:51;;;;;;;1999.90;999.90;;;;;;;;;;5042308;28;20037;-82
2023/09/21 05:01:18;;;;;;;1999.90;999.90;;;;;;;;;;5044178;28;20394;-79
2023/09/21 05:03:46;;;;;;;1999.90;999.90;;;;;;;;;;5045461;28;20041;-80
2023/09/21 05:06:12;;;;;;;1999.90;999.90;;;;;;;;;;5043074;28;20049;-79
2023/09/21 05:08:39;;;;;;;1999.90;999.90;;;;;;;;;;5050323;28;20061;-80
2023/09/21 05:11:06;;;;;;;1999.90;999.90;;;;;;;;;;5046370;28;20481;-80
2023/09/21 05:13:32;;;;;;;1999.90;999.90;;;;;;;;;;5050199;28;20049;-80
2023/09/21 05:15:59;;;;;;;1999.90;999.90;;;;;;;;;;5043268;28;20053;-80
2023/09/21 05:18:27;;;;;;;1999.90;999.90;;;;;;;;;;5036756;28;20046;-79
2023/09/21 05:20:55;;;;;;;1999.90;999.90;;;;;;;;;;5051942;28;20056;-80
2023/09/21 05:23:37;;;;;;;1999.90;999.90;;;;;;;;;;5056679;28;20049;-79
2023/09/21 05:26:03;;;;;;;1999.90;999.90;;;;;;;;;;5057029;28;20045;-79
2023/09/21 05:28:31;;;;;;;1999.90;999.90;;;;;;;;;;5056249;28;20497;-79
2023/09/21 05:31:03;;;;;;;1999.90;999.90;;;;;;;;;;5056059;28;20118;-79
2023/09/21 05:33:30;;;;;;;1999.90;999.90;;;;;;;;;;5056036;28;20045;-79
2023/09/21 05:36:04;;;;;;;1999.90;999.90;;;;;;;;;;5056424;28;20045;-79
2023/09/21 05:38:32;;;;;;;1999.90;999.90;;;;;;;;;;5055878;28;20473;-80
2023/09/21 05:40:58;;;;;;;1999.90;999.90;;;;;;;;;;5049846;28;20053;-81
2023/09/21 05:43:25;;;;;;;1999.90;999.90;;;;;;;;;;5040886;28;20041;-79
2023/09/21 05:45:51;;;;;;;1999.90;999.90;;;;;;;;;;5043947;28;20056;-80
2023/09/21 05:48:19;;;;;;;1999.90;999.90;;;;;;;;;;5039109;28;20088;-79
2023/09/21 05:50:45;;;;;;;1999.90;999.90;;;;;;;;;;5039041;28;20099;-79
2023/09/21 05:53:13;;;;;;;1999.90;999.90;;;;;;;;;;5045674;28;20080;-80
2023/09/21 05:55:43;;;;;;;1999.90;999.90;;;;;;;;;;5040247;28;20049;-79
2023/09/21 05:58:10;;;;;;;1999.90;999.90;;;;;;;;;;5043081;28;20045;-79
2023/09/21 06:00:37;;;;;;;1999.90;999.90;;;;;;;;;;5041481;28;20099;-79
2023/09/21 06:03:03;;;;;;;1999.90;999.90;;;;;;;;;;5044675;28;20413;-79
2023/09/21 06:05:30;;;;;;;1999.90;999.90;;;;;;;;;;5043547;28;20078;-79
2023/09/21 06:07:58;;;;;;;1999.90;999.90;;;;;;;;;;5042329;28;20056;-79
2023/09/21 06:10:25;;;;;;;1999.90;999.90;;;;;;;;;;5040245;28;20107;-81
2023/09/21 06:12:52;;;;;;;1999.90;999.90;;;;;;;;;;5040809;28;20527;-80
2023/09/21 06:15:19;;;;;;;1999.90;999.90;;;;;;;;;;5040730;28;20481;-81
2023/09/21 06:17:46;;;;;;;1999.90;999.90;;;;;;;;;;5043920;28;20072;-79
2023/09/21 06:20:12;;;;;;;1999.90;999.90;;;;;;;;;;5044794;28;20513;-79
2023/09/21 06:22:39;;;;;;;1999.90;999.90;;;;;;;;;;5040846;28;20080;-80
2023/09/21 06:25:07;;;;;;;1999.90;999.90;;;;;;;;;;5042117;28;20505;-80
2023/09/21 06:27:36;;;;;;;1999.90;999.90;;;;;;;;;;5038229;28;20425;-80
2023/09/21 06:30:03;;;;;;;1999.90;999.90;;;;;;;;;;5041506;28;20489;-80
2023/09/21 06:32:29;;;;;;;1999.90;999.90;;;;;;;;;;5040330;28;20389;-79
2023/09/21 06:34:56;;;;;;;1999.90;999.90;;;;;;;;;;5041211;28;20085;-80
2023/09/21 06:37:22;;;;;;;1999.90;999.90;;;;;;;;;;5039851;28;20099;-80
2023/09/21 06:39:49;;;;;;;1999.90;999.90;;;;;;;;;;5041177;28;20041;-80
2023/09/21 06:42:16;;;;;;;1999.90;999.90;;;;;;;;;;5041086;28;20048;-79
2023/09/21 06:44:43;;;;;;;1999.90;999.90;;;;;;;;;;5039257;28;20099;-80
2023/09/21 06:47:12;;;;;;;1999.90;999.90;;;;;;;;;;5041347;28;20718;-79
2023/09/21 06:49:39;;;;;;;1999.90;999.90;;;;;;;;;;5040767;28;20420;-80
2023/09/21 06:52:05;;;;;;;1999.90;999.90;;;;;;;;;;5041103;28;20048;-80
2023/09/21 06:54:33;;;;;;;1999.90;999.90;;;;;;;;;;5041462;28;20080;-82
2023/09/21 06:57:03;;;;;;;1999.90;999.90;;;;;;;;;;5039104;28;20053;-81
2023/09/21 06:59:30;;;;;;;1999.90;999.90;;;;;;;;;;5038556;28;20045;-81
2023/09/21 07:01:58;;;;;;;1999.90;999.90;;;;;;;;;;5047460;28;20408;-79
2023/09/21 07:04:27;;;;;;;1999.90;999.90;;;;;;;;;;5041345;28;20045;-82
2023/09/21 07:06:54;;;;;;;1999.90;999.90;;;;;;;;;;5037983;28;20083;-80
2023/09/21 07:09:21;;;;;;;1999.90;999.90;;;;;;;;;;5041385;28;20061;-82
2023/09/21 07:11:49;;;;;;;1999.90;999.90;;;;;;;;;;5041928;28;20049;-80
2023/09/21 07:14:15;;;;;;;1999.90;999.90;;;;;;;;;;5040917;28;20044;-82
2023/09/21 07:16:42;;;;;;;1999.90;999.90;;;;;;;;;;5043613;28;20041;-84
2023/09/21 07:19:11;;;;;;;1999.90;999.90;;;;;;;;;;5045404;28;20041;-80
2023/09/21 07:21:38;;;;;;;1999.90;999.90;;;;;;;;;;5039340;28;20045;-80
2023/09/21 07:24:07;;;;;;;1999.90;999.90;;;;;;;;;;5042340;28;20054;-82
2023/09/21 07:26:34;;;;;;;1999.90;999.90;;;;;;;;;;5040312;28;20053;-80
2023/09/21 07:29:04;;;;;;;1999.90;999.90;;;;;;;;;;5038515;28;20489;-80
2023/09/21 07:31:33;;;;;;;1999.90;999.90;;;;;;;;;;5040170;28;20464;-81
2023/09/21 07:33:59;;;;;;;1999.90;999.90;;;;;;;;;;5041208;28;20045;-81
2023/09/21 07:36:27;;;;;;;1999.90;999.90;;;;;;;;;;5038394;28;20049;-83
2023/09/21 07:38:55;;;;;;;1999.90;999.90;;;;;;;;;;5041141;28;20052;-80
2023/09/21 07:41:21;;;;;;;1999.90;999.90;;;;;;;;;;5039227;28;20049;-81
2023/09/21 07:43:48;;;;;;;1999.90;999.90;;;;;;;;;;5040732;28;20041;-80
2023/09/21 07:46:14;;;;;;;1999.90;999.90;;;;;;;;;;5038532;28;20049;-82
2023/09/21 07:48:41;;;;;;;1999.90;999.90;;;;;;;;;;5040831;28;20045;-81
2023/09/21 07:51:08;;;;;;;1999.90;999.90;;;;;;;;;;5039328;28;20127;-80
2023/09/21 07:53:36;;;;;;;1999.90;999.90;;;;;;;;;;5042202;28;20054;-81
2023/09/21 07:56:05;;;;;;;1999.90;999.90;;;;;;;;;;5039465;28;20049;-81
2023/09/21 07:58:32;;;;;;;1999.90;999.90;;;;;;;;;;5039438;28;20048;-86
2023/09/21 08:00:58;;;;;;;1999.90;999.90;;;;;;;;;;5036435;28;20057;-81
2023/09/21 08:03:26;;;;;;;1999.90;999.90;;;;;;;;;;5041649;28;20371;-80
2023/09/21 08:05:53;;;;;;;1999.90;999.90;;;;;;;;;;5043541;28;20226;-80
2023/09/21 08:08:19;;;;;;;1999.90;999.90;;;;;;;;;;5039659;28;20076;-81
2023/09/21 08:10:48;;;;;;;1999.90;999.90;;;;;;;;;;5034210;28;20041;-80
2023/09/21 08:13:15;;;;;;;1999.90;999.90;;;;;;;;;;5041937;28;20556;-80
2023/09/21 08:15:42;;;;;;;1999.90;999.90;;;;;;;;;;5040539;28;20052;-82
2023/09/21 08:18:10;;;;;;;1999.90;999.90;;;;;;;;;;5038769;28;20124;-81
2023/09/21 08:20:36;;;;;;;1999.90;999.90;;;;;;;;;;5038687;28;20577;-80
2023/09/21 08:23:03;;;;;;;1999.90;999.90;;;;;;;;;;5037781;28;20505;-80
2023/09/21 08:25:30;;;;;;;1999.90;999.90;;;;;;;;;;5037941;28;20057;-80
2023/09/21 08:27:58;;;;;;;1999.90;999.90;;;;;;;;;;5038842;28;20486;-81
2023/09/21 08:30:25;;;;;;;1999.90;999.90;;;;;;;;;;5041795;28;20129;-81
2023/09/21 08:32:51;;;;;;;1999.90;999.90;;;;;;;;;;5037116;28;20049;-81
2023/09/21 08:35:18;;;;;;;1999.90;999.90;;;;;;;;;;5040804;28;20144;-83
2023/09/21 08:37:45;;;;;;;1999.90;999.90;;;;;;;;;;5040220;28;20041;-81
2023/09/21 08:40:12;;;;;;;1999.90;999.90;;;;;;;;;;5039647;28;20400;-79
2023/09/21 08:42:39;;;;;;;1999.90;999.90;;;;;;;;;;5036061;28;20052;-81
2023/09/21 08:45:09;;;;;;;1999.90;999.90;;;;;;;;;;5038959;28;20051;-80
2023/09/21 08:47:36;;;;;;;1999.90;999.90;;;;;;;;;;5040772;28;20041;-80
2023/09/21 08:50:04;;;;;;;1999.90;999.90;;;;;;;;;;5040494;28;20060;-83
2023/09/21 08:52:33;;;;;;;1999.90;999.90;;;;;;;;;;5037114;28;20056;-80
2023/09/21 08:54:59;;;;;;;1999.90;999.90;;;;;;;;;;5039727;28;20041;-81
2023/09/21 08:57:26;;;;;;;1999.90;999.90;;;;;;;;;;5039396;28;20076;-81
2023/09/21 08:59:55;;;;;;;1999.90;999.90;;;;;;;;;;5038965;28;20046;-83
2023/09/21 09:02:24;;;;;;;1999.90;999.90;;;;;;;;;;5039176;28;20056;-84
2023/09/21 09:04:51;;;;;;;1999.90;999.90;;;;;;;;;;5041408;28;20558;-80
2023/09/21 09:07:18;;;;;;;1999.90;999.90;;;;;;;;;;5036870;28;20457;-83
2023/09/21 09:09:45;;;;;;;1999.90;999.90;;;;;;;;;;5042755;28;20346;-80
2023/09/21 09:12:22;;;;;;;1999.90;999.90;;;;;;;;;;5040615;28;20095;-82
2023/09/21 09:14:49;;;;;;;1999.90;999.90;;;;;;;;;;5039554;28;20049;-80
2023/09/21 09:17:16;;;;;;;1999.90;999.90;;;;;;;;;;5042889;28;20486;-80
2023/09/21 09:19:44;;;;;;;1999.90;999.90;;;;;;;;;;5045482;28;20045;-81
2023/09/21 09:22:11;;;;;;;1999.90;999.90;;;;;;;;;;5040820;28;20068;-81
2023/09/21 09:24:38;;;;;;;1999.90;999.90;;;;;;;;;;5041933;28;20049;-81
2023/09/21 09:27:05;;;;;;;1999.90;999.90;;;;;;;;;;5040313;28;20052;-80
2023/09/21 09:29:33;;;;;;;1999.90;999.90;;;;;;;;;;5044402;28;20041;-80
2023/09/21 09:31:59;;;;;;;1999.90;999.90;;;;;;;;;;5041195;28;20049;-80
2023/09/21 09:34:28;;;;;;;1999.90;999.90;;;;;;;;;;5043509;28;20051;-83
2023/09/21 09:36:56;;;;;;;1999.90;999.90;;;;;;;;;;5044924;28;20477;-80
2023/09/21 09:39:23;;;;;;;1999.90;999.90;;;;;;;;;;5045370;28;20042;-80
2023/09/21 09:41:51;;;;;;;1999.90;999.90;;;;;;;;;;5042713;28;20041;-80
2023/09/21 09:44:22;;;;;;;1999.90;999.90;;;;;;;;;;5039723;28;20056;-81
2023/09/21 09:46:49;;;;;;;1999.90;999.90;;;;;;;;;;5038783;28;20045;-84
2023/09/21 09:49:17;;;;;;;1999.90;999.90;;;;;;;;;;5043581;28;20405;-81
2023/09/21 09:51:45;;;;;;;1999.90;999.90;;;;;;;;;;5044196;28;20052;-81
2023/09/21 09:54:14;;;;;;;1999.90;999.90;;;;;;;;;;5041647;28;20053;-80
2023/09/21 09:56:41;;;;;;;1999.90;999.90;;;;;;;;;;5043448;28;20059;-81
2023/09/21 09:59:09;;;;;;;1999.90;999.90;;;;;;;;;;5043160;28;20099;-80
2023/09/21 10:01:37;;;;;;;1999.90;999.90;;;;;;;;;;5046417;28;20610;-80
2023/09/21 10:04:06;;;;;;;1999.90;999.90;;;;;;;;;;5043502;28;20053;-81
2023/09/21 10:06:34;;;;;;;1999.90;999.90;;;;;;;;;;5041953;28;20057;-83
2023/09/21 10:09:02;;;;;;;1999.90;999.90;;;;;;;;;;5042334;28;20053;-82
2023/09/21 10:11:31;;;;;;;1999.90;999.90;;;;;;;;;;5039909;28;20049;-81
2023/09/21 10:14:00;;;;;;;1999.90;999.90;;;;;;;;;;5040201;28;20131;-82
2023/09/21 10:16:27;;;;;;;1999.90;999.90;;;;;;;;;;5041705;28;20041;-84
2023/09/21 10:18:57;;;;;;;1999.90;999.90;;;;;;;;;;5042359;28;20095;-81
2023/09/21 10:21:29;;;;;;;1999.90;999.90;;;;;;;;;;5042252;28;20037;-81
2023/09/21 10:24:06;;;;;;;1999.90;999.90;;;;;;;;;;5045426;28;20041;-79
2023/09/21 10:26:38;;;;;;;1999.90;999.90;;;;;;;;;;5042759;28;20103;-81
2023/09/21 10:29:07;;;;;;;1999.90;999.90;;;;;;;;;;5040308;28;20110;-79
2023/09/21 10:31:34;;;;;;;1999.90;999.90;;;;;;;;;;5040407;28;20055;-80
2023/09/21 10:34:12;;;;;;;1999.90;999.90;;;;;;;;;;5039870;28;20048;-81
2023/09/21 10:36:43;;;;;;;1999.90;999.90;;;;;;;;;;5042336;28;20045;-80
2023/09/21 10:39:28;;;;;;;1999.90;999.90;;;;;;;;;;5043374;28;20571;-80
2023/09/21 10:41:57;;;;;;;1999.90;999.90;;;;;;;;;;5037506;28;20117;-81
2023/09/21 10:44:56;;;;;;;1999.90;999.90;;;;;;;;;;5042388;28;20284;-79
2023/09/21 10:47:28;;;;;;;1999.90;999.90;;;;;;;;;;5042028;28;20107;-80
2023/09/21 10:49:56;;;;;;;1999.90;999.90;;;;;;;;;;5041939;28;20072;-83
2023/09/21 10:52:23;;;;;;;1999.90;999.90;;;;;;;;;;5038280;28;20049;-83
2023/09/21 10:54:51;;;;;;;1999.90;999.90;;;;;;;;;;5041160;28;20048;-81
2023/09/21 10:57:22;;;;;;;1999.90;999.90;;;;;;;;;;5041112;28;20045;-85
2023/09/21 10:59:49;;;;;;;1999.90;999.90;;;;;;;;;;5042778;28;20053;-83
2023/09/21 11:02:16;;;;;;;1999.90;999.90;;;;;;;;;;5041112;28;20049;-81
2023/09/21 11:04:43;;;;;;;1999.90;999.90;;;;;;;;;;5039537;28;20132;-81
2023/09/21 11:07:12;;;;;;;1999.90;999.90;;;;;;;;;;5042145;28;20413;-81
2023/09/21 11:09:39;;;;;;;1999.90;999.90;;;;;;;;;;5041290;28;20463;-80
2023/09/21 11:12:08;;;;;;;1999.90;999.90;;;;;;;;;;5037719;28;20045;-80
2023/09/21 11:14:36;;;;;;;1999.90;999.90;;;;;;;;;;5041340;28;20045;-81
2023/09/21 11:17:04;;;;;;;1999.90;999.90;;;;;;;;;;5038933;28;20140;-81
2023/09/21 11:19:31;;;;;;;1999.90;999.90;;;;;;;;;;5040062;28;20053;-83
2023/09/21 11:21:58;;;;;;;1999.90;999.90;;;;;;;;;;5042530;28;20132;-81
2023/09/21 11:24:24;;;;;;;1999.90;999.90;;;;;;;;;;5042148;28;20505;-84
2023/09/21 11:26:54;;;;;;;1999.90;999.90;;;;;;;;;;5042994;28;20073;-81
2023/09/21 11:29:21;;;;;;;1999.90;999.90;;;;;;;;;;5040131;28;20559;-84
2023/09/21 11:31:51;;;;;;;1999.90;999.90;;;;;;;;;;5039687;28;20045;-81
2023/09/21 11:34:18;;;;;;;1999.90;999.90;;;;;;;;;;5044943;28;20071;-82
2023/09/21 11:36:44;;;;;;;1999.90;999.90;;;;;;;;;;5038206;28;20260;-80
2023/09/21 11:39:11;;;;;;;1999.90;999.90;;;;;;;;;;5039937;28;20045;-81
2023/09/21 11:41:39;;;;;;;1999.90;999.90;;;;;;;;;;5043178;28;20136;-82
2023/09/21 11:44:06;;;;;;;1999.90;999.90;;;;;;;;;;5039702;28;20053;-81
2023/09/21 11:46:34;;;;;;;1999.90;999.90;;;;;;;;;;5042408;28;20044;-81
2023/09/21 11:49:03;;;;;;;1999.90;999.90;;;;;;;;;;5040274;28;20472;-82
2023/09/21 11:51:30;;;;;;;1999.90;999.90;;;;;;;;;;5044384;28;20049;-81
2023/09/21 11:53:58;;;;;;;1999.90;999.90;;;;;;;;;;5039458;28;20045;-81
2023/09/21 11:56:24;;;;;;;1999.90;999.90;;;;;;;;;;5043213;28;20081;-84
2023/09/21 11:58:53;;;;;;;1999.90;999.90;;;;;;;;;;5038203;28;20036;-83
2023/09/21 12:01:22;;;;;;;1999.90;999.90;;;;;;;;;;5038876;28;20077;-80
2023/09/21 12:03:51;;;;;;;1999.90;999.90;;;;;;;;;;5037769;28;20098;-80
2023/09/21 12:06:19;;;;;;;1999.90;999.90;;;;;;;;;;5040719;28;20049;-80
2023/09/21 12:08:46;;;;;;;1999.90;999.90;;;;;;;;;;5044908;28;20056;-81
2023/09/21 12:11:13;;;;;;;1999.90;999.90;;;;;;;;;;5039521;28;20041;-80
2023/09/21 12:13:39;;;;;;;1999.90;999.90;;;;;;;;;;5037706;28;20051;-80
2023/09/21 12:16:06;;;;;;;1999.90;999.90;;;;;;;;;;5043386;28;20049;-80
2023/09/21 12:18:33;;;;;;;1999.90;999.90;;;;;;;;;;5043562;28;20048;-84
2023/09/21 12:21:00;;;;;;;1999.90;999.90;;;;;;;;;;5040669;28;20501;-80
2023/09/21 12:23:28;;;;;;;1999.90;999.90;;;;;;;;;;5038010;28;20128;-84
2023/09/21 12:25:54;;;;;;;1999.90;999.90;;;;;;;;;;5041483;28;20103;-80
2023/09/21 12:28:21;;;;;;;1999.90;999.90;;;;;;;;;;5031596;28;20045;-80
2023/09/21 12:30:48;;;;;;;1999.90;999.90;;;;;;;;;;5043559;28;20041;-80
2023/09/21 12:33:15;;;;;;;1999.90;999.90;;;;;;;;;;5043013;28;20049;-80
2023/09/21 12:35:42;;;;;;;1999.90;999.90;;;;;;;;;;5041616;28;20045;-80
2023/09/21 12:38:10;;;;;;;1999.90;999.90;;;;;;;;;;5041257;28;20037;-80
2023/09/21 12:40:38;;;;;;;1999.90;999.90;;;;;;;;;;5041295;28;20052;-82
2023/09/21 12:43:08;;;;;;;1999.90;999.90;;;;;;;;;;5039906;28;20052;-81
2023/09/21 12:45:34;;;;;;;1999.90;999.90;;;;;;;;;;5041316;28;20041;-80
2023/09/21 12:48:02;;;;;;;1999.90;999.90;;;;;;;;;;5036605;28;20064;-82
2023/09/21 12:50:29;;;;;;;1999.90;999.90;;;;;;;;;;5039897;28;20482;-81
2023/09/21 12:52:56;;;;;;;1999.90;999.90;;;;;;;;;;5042847;28;20107;-79
2023/09/21 12:55:22;;;;;;;1999.90;999.90;;;;;;;;;;5042788;28;20060;-80
2023/09/21 12:57:50;;;;;;;1999.90;999.90;;;;;;;;;;5042249;28;20033;-80
2023/09/21 13:00:22;;;;;;;1999.90;999.90;;;;;;;;;;5044660;28;20177;-83
2023/09/21 13:02:50;;;;;;;1999.90;999.90;;;;;;;;;;5040328;28;20098;-80
2023/09/21 13:05:17;;;;;;;1999.90;999.90;;;;;;;;;;5043353;28;20055;-81
2023/09/21 13:07:46;;;;;;;1999.90;999.90;;;;;;;;;;5040885;28;20286;-81
2023/09/21 13:10:14;;;;;;;1999.90;999.90;;;;;;;;;;5044281;28;20060;-81
2023/09/21 13:12:41;;;;;;;1999.90;999.90;;;;;;;;;;5043522;28;20108;-80
2023/09/21 13:15:10;;;;;;;1999.90;999.90;;;;;;;;;;5048101;28;20114;-80
2023/09/21 13:17:37;;;;;;;1999.90;999.90;;;;;;;;;;5042918;28;20448;-80
2023/09/21 13:20:05;;;;;;;1999.90;999.90;;;;;;;;;;5044540;28;20437;-80
2023/09/21 13:22:34;;;;;;;1999.90;999.90;;;;;;;;;;5044158;28;20048;-82
2023/09/21 13:25:00;;;;;;;1999.90;999.90;;;;;;;;;;5046617;28;20045;-79
2023/09/21 13:27:28;;;;;;;1999.90;999.90;;;;;;;;;;5041429;28;20495;-80
2023/09/21 13:29:55;;;;;;;1999.90;999.90;;;;;;;;;;5042872;28;20076;-82
2023/09/21 13:32:23;;;;;;;1999.90;999.90;;;;;;;;;;5042197;28;20045;-81
2023/09/21 13:34:50;;;;;;;1999.90;999.90;;;;;;;;;;5041951;28;20037;-79
2023/09/21 13:37:18;;;;;;;1999.90;999.90;;;;;;;;;;5043618;28;20746;-79
2023/09/21 13:39:45;;;;;;;1999.90;999.90;;;;;;;;;;5043244;28;20048;-80
2023/09/21 13:42:12;;;;;;;1999.90;999.90;;;;;;;;;;5040240;28;20493;-79
2023/09/21 13:44:38;;;;;;;1999.90;999.90;;;;;;;;;;5038318;28;20068;-79
2023/09/21 13:47:05;;;;;;;1999.90;999.90;;;;;;;;;;5042397;28;20057;-79
2023/09/21 13:49:33;;;;;;;1999.90;999.90;;;;;;;;;;5044217;28;20052;-82
2023/09/21 13:52:00;;;;;;;1999.90;999.90;;;;;;;;;;5038697;28;20107;-79